sensor_id;sensor_type;location;lat;lon;timestamp;temperature;humidity
50758;DHT22;36732;47.980;11.652;2023-04-30T00:01:43;15.30;62.20
50758;DHT22;36732;47.980;11.652;2023-04-30T00:04:09;15.30;62.10
50758;DHT22;36732;47.980;11.652;2023-04-30T00:06:35;15.30;62.10
50758;DHT22;36732;47.980;11.652;2023-04-30T00:09:00;15.30;62.10
50758;DHT22;36732;47.980;11.652;2023-04-30T00:11:26;15.30;62.10
50758;DHT22;36732;47.980;11.652;2023-04-30T00:13:52;15.30;62.10
50758;DHT22;36732;47.980;11.652;2023-04-30T00:16:18;15.20;62.00
50758;DHT22;36732;47.980;11.652;2023-04-30T00:18:44;15.20;62.00
50758;DHT22;36732;47.980;11.652;2023-04-30T00:21:10;15.20;62.00
50758;DHT22;36732;47.980;11.652;2023-04-30T00:23:35;15.20;62.10
50758;DHT22;36732;47.980;11.652;2023-04-30T00:26:01;15.20;62.10
50758;DHT22;36732;47.980;11.652;2023-04-30T00:28:27;15.20;62.10
50758;DHT22;36732;47.980;11.652;2023-04-30T00:30:53;15.20;62.20
50758;DHT22;36732;47.980;11.652;2023-04-30T00:33:18;15.20;62.30
50758;DHT22;36732;47.980;11.652;2023-04-30T00:35:44;15.10;62.20
50758;DHT22;36732;47.980;11.652;2023-04-30T00:38:10;15.20;62.40
50758;DHT22;36732;47.980;11.652;2023-04-30T00:40:37;15.20;62.50
50758;DHT22;36732;47.980;11.652;2023-04-30T00:43:04;15.10;62.40
50758;DHT22;36732;47.980;11.652;2023-04-30T00:45:30;15.20;62.50
50758;DHT22;36732;47.980;11.652;2023-04-30T00:47:56;15.10;62.40
50758;DHT22;36732;47.980;11.652;2023-04-30T00:50:22;15.20;62.40
50758;DHT22;36732;47.980;11.652;2023-04-30T00:52:49;15.20;62.50
50758;DHT22;36732;47.980;11.652;2023-04-30T00:55:16;15.10;62.50
50758;DHT22;36732;47.980;11.652;2023-04-30T00:57:42;15.10;62.50
50758;DHT22;36732;47.980;11.652;2023-04-30T01:00:08;15.10;62.50
50758;DHT22;36732;47.980;11.652;2023-04-30T01:02:36;15.10;62.50
50758;DHT22;36732;47.980;11.652;2023-04-30T01:05:03;15.10;62.50
50758;DHT22;36732;47.980;11.652;2023-04-30T01:07:30;15.10;62.60
50758;DHT22;36732;47.980;11.652;2023-04-30T01:09:56;15.10;62.50
50758;DHT22;36732;47.980;11.652;2023-04-30T01:12:25;15.10;62.50
50758;DHT22;36732;47.980;11.652;2023-04-30T01:20:39;15.10;62.20
50758;DHT22;36732;47.980;11.652;2023-04-30T01:26:19;15.10;62.50
50758;DHT22;36732;47.980;11.652;2023-04-30T01:28:58;15.00;62.50
50758;DHT22;36732;47.980;11.652;2023-04-30T01:31:27;15.10;62.50
50758;DHT22;36732;47.980;11.652;2023-04-30T01:33:53;15.00;62.60
50758;DHT22;36732;47.980;11.652;2023-04-30T01:36:39;15.10;62.70
50758;DHT22;36732;47.980;11.652;2023-04-30T01:42:24;15.00;62.60
50758;DHT22;36732;47.980;11.652;2023-04-30T01:45:15;15.00;62.60
50758;DHT22;36732;47.980;11.652;2023-04-30T01:48:05;15.00;62.60
50758;DHT22;36732;47.980;11.652;2023-04-30T01:50:48;15.00;62.70
50758;DHT22;36732;47.980;11.652;2023-04-30T01:53:21;15.00;62.70
50758;DHT22;36732;47.980;11.652;2023-04-30T01:55:50;15.00;62.80
50758;DHT22;36732;47.980;11.652;2023-04-30T01:58:22;15.00;62.70
50758;DHT22;36732;47.980;11.652;2023-04-30T02:00:49;15.00;62.70
50758;DHT22;36732;47.980;11.652;2023-04-30T02:03:16;15.00;62.70
50758;DHT22;36732;47.980;11.652;2023-04-30T02:05:42;14.90;62.70
50758;DHT22;36732;47.980;11.652;2023-04-30T02:08:08;14.90;62.60
50758;DHT22;36732;47.980;11.652;2023-04-30T02:10:33;14.90;62.80
50758;DHT22;36732;47.980;11.652;2023-04-30T02:12:59;14.90;62.80
50758;DHT22;36732;47.980;11.652;2023-04-30T02:15:25;14.90;62.70
50758;DHT22;36732;47.980;11.652;2023-04-30T02:17:51;14.90;62.70
50758;DHT22;36732;47.980;11.652;2023-04-30T02:20:17;14.90;62.80
50758;DHT22;36732;47.980;11.652;2023-04-30T02:22:43;14.90;62.70
50758;DHT22;36732;47.980;11.652;2023-04-30T02:25:09;14.90;62.70
50758;DHT22;36732;47.980;11.652;2023-04-30T02:27:36;14.90;62.80
50758;DHT22;36732;47.980;11.652;2023-04-30T02:30:02;14.90;62.70
50758;DHT22;36732;47.980;11.652;2023-04-30T02:32:29;14.80;62.70
50758;DHT22;36732;47.980;11.652;2023-04-30T02:34:55;14.80;62.80
50758;DHT22;36732;47.980;11.652;2023-04-30T02:37:21;14.80;62.80
50758;DHT22;36732;47.980;11.652;2023-04-30T02:39:47;14.80;62.80
50758;DHT22;36732;47.980;11.652;2023-04-30T02:42:13;14.80;62.90
50758;DHT22;36732;47.980;11.652;2023-04-30T02:44:39;14.80;63.00
50758;DHT22;36732;47.980;11.652;2023-04-30T02:47:04;14.80;63.00
50758;DHT22;36732;47.980;11.652;2023-04-30T02:49:30;14.80;63.00
50758;DHT22;36732;47.980;11.652;2023-04-30T02:51:56;14.80;63.00
50758;DHT22;36732;47.980;11.652;2023-04-30T02:54:22;14.80;63.00
50758;DHT22;36732;47.980;11.652;2023-04-30T02:56:47;14.80;62.90
50758;DHT22;36732;47.980;11.652;2023-04-30T02:59:13;14.80;63.00
50758;DHT22;36732;47.980;11.652;2023-04-30T03:01:39;14.80;63.00
50758;DHT22;36732;47.980;11.652;2023-04-30T03:04:05;14.80;62.90
50758;DHT22;36732;47.980;11.652;2023-04-30T03:06:31;14.70;63.00
50758;DHT22;36732;47.980;11.652;2023-04-30T03:08:58;14.70;63.00
50758;DHT22;36732;47.980;11.652;2023-04-30T03:11:23;14.80;63.00
50758;DHT22;36732;47.980;11.652;2023-04-30T03:13:49;14.70;62.90
50758;DHT22;36732;47.980;11.652;2023-04-30T03:16:16;14.70;62.90
50758;DHT22;36732;47.980;11.652;2023-04-30T03:18:43;14.70;62.90
50758;DHT22;36732;47.980;11.652;2023-04-30T03:21:10;14.70;62.90
50758;DHT22;36732;47.980;11.652;2023-04-30T03:23:36;14.70;62.90
50758;DHT22;36732;47.980;11.652;2023-04-30T03:28:39;14.60;63.00
50758;DHT22;36732;47.980;11.652;2023-04-30T03:31:04;14.60;63.00
50758;DHT22;36732;47.980;11.652;2023-04-30T03:33:31;14.60;63.00
50758;DHT22;36732;47.980;11.652;2023-04-30T03:35:57;14.60;63.00
50758;DHT22;36732;47.980;11.652;2023-04-30T03:38:23;14.60;63.00
50758;DHT22;36732;47.980;11.652;2023-04-30T03:40:48;14.60;63.00
50758;DHT22;36732;47.980;11.652;2023-04-30T03:43:14;14.60;63.00
50758;DHT22;36732;47.980;11.652;2023-04-30T03:45:40;14.60;63.00
50758;DHT22;36732;47.980;11.652;2023-04-30T03:48:05;14.60;63.00
50758;DHT22;36732;47.980;11.652;2023-04-30T03:50:32;14.60;63.00
50758;DHT22;36732;47.980;11.652;2023-04-30T03:52:57;14.60;63.00
50758;DHT22;36732;47.980;11.652;2023-04-30T03:55:23;14.60;62.90
50758;DHT22;36732;47.980;11.652;2023-04-30T03:57:49;14.60;62.90
50758;DHT22;36732;47.980;11.652;2023-04-30T04:00:15;14.60;62.80
50758;DHT22;36732;47.980;11.652;2023-04-30T04:02:41;14.50;62.70
50758;DHT22;36732;47.980;11.652;2023-04-30T04:05:06;14.50;62.80
50758;DHT22;36732;47.980;11.652;2023-04-30T04:07:32;14.60;62.90
50758;DHT22;36732;47.980;11.652;2023-04-30T04:09:58;14.50;62.70
50758;DHT22;36732;47.980;11.652;2023-04-30T04:12:24;14.50;62.70
50758;DHT22;36732;47.980;11.652;2023-04-30T04:14:49;14.50;62.80
50758;DHT22;36732;47.980;11.652;2023-04-30T04:17:15;14.50;62.80
50758;DHT22;36732;47.980;11.652;2023-04-30T04:19:41;14.50;62.70
50758;DHT22;36732;47.980;11.652;2023-04-30T04:22:06;14.50;62.80
50758;DHT22;36732;47.980;11.652;2023-04-30T04:24:32;14.40;62.70
50758;DHT22;36732;47.980;11.652;2023-04-30T04:26:58;14.40;62.80
50758;DHT22;36732;47.980;11.652;2023-04-30T04:29:26;14.40;62.70
50758;DHT22;36732;47.980;11.652;2023-04-30T04:31:52;14.40;62.80
50758;DHT22;36732;47.980;11.652;2023-04-30T04:34:19;14.40;62.90
50758;DHT22;36732;47.980;11.652;2023-04-30T04:36:45;14.50;63.00
50758;DHT22;36732;47.980;11.652;2023-04-30T04:39:11;14.40;63.00
50758;DHT22;36732;47.980;11.652;2023-04-30T04:41:38;14.40;63.00
50758;DHT22;36732;47.980;11.652;2023-04-30T04:44:04;14.40;63.10
50758;DHT22;36732;47.980;11.652;2023-04-30T04:46:30;14.40;63.10
50758;DHT22;36732;47.980;11.652;2023-04-30T04:48:59;14.40;63.10
50758;DHT22;36732;47.980;11.652;2023-04-30T04:51:25;14.40;63.00
50758;DHT22;36732;47.980;11.652;2023-04-30T04:53:51;14.40;63.00
50758;DHT22;36732;47.980;11.652;2023-04-30T04:56:17;14.40;63.00
50758;DHT22;36732;47.980;11.652;2023-04-30T04:58:43;14.40;63.00
50758;DHT22;36732;47.980;11.652;2023-04-30T05:01:10;14.40;63.00
50758;DHT22;36732;47.980;11.652;2023-04-30T05:03:35;14.40;63.00
50758;DHT22;36732;47.980;11.652;2023-04-30T05:06:02;14.40;63.00
50758;DHT22;36732;47.980;11.652;2023-04-30T05:08:28;14.40;63.10
50758;DHT22;36732;47.980;11.652;2023-04-30T05:10:53;14.40;63.10
50758;DHT22;36732;47.980;11.652;2023-04-30T05:13:19;14.40;63.10
50758;DHT22;36732;47.980;11.652;2023-04-30T05:15:45;14.40;62.90
50758;DHT22;36732;47.980;11.652;2023-04-30T05:18:11;14.40;62.90
50758;DHT22;36732;47.980;11.652;2023-04-30T05:20:37;14.40;63.10
50758;DHT22;36732;47.980;11.652;2023-04-30T05:23:03;14.40;63.00
50758;DHT22;36732;47.980;11.652;2023-04-30T05:25:28;14.40;63.00
50758;DHT22;36732;47.980;11.652;2023-04-30T05:27:55;14.40;62.90
50758;DHT22;36732;47.980;11.652;2023-04-30T05:30:21;14.40;62.90
50758;DHT22;36732;47.980;11.652;2023-04-30T05:32:47;14.40;62.80
50758;DHT22;36732;47.980;11.652;2023-04-30T05:35:17;14.40;62.70
50758;DHT22;36732;47.980;11.652;2023-04-30T05:37:43;14.40;62.70
50758;DHT22;36732;47.980;11.652;2023-04-30T05:40:09;14.40;62.90
50758;DHT22;36732;47.980;11.652;2023-04-30T05:42:35;14.40;62.90
50758;DHT22;36732;47.980;11.652;2023-04-30T05:45:03;14.40;63.10
50758;DHT22;36732;47.980;11.652;2023-04-30T05:47:28;14.40;63.10
50758;DHT22;36732;47.980;11.652;2023-04-30T05:49:55;14.40;62.90
50758;DHT22;36732;47.980;11.652;2023-04-30T05:52:22;14.40;62.80
50758;DHT22;36732;47.980;11.652;2023-04-30T05:54:47;14.30;62.90
50758;DHT22;36732;47.980;11.652;2023-04-30T05:57:13;14.30;62.90
50758;DHT22;36732;47.980;11.652;2023-04-30T05:59:39;14.30;62.90
50758;DHT22;36732;47.980;11.652;2023-04-30T06:02:05;14.30;62.80
50758;DHT22;36732;47.980;11.652;2023-04-30T06:04:31;14.30;62.90
50758;DHT22;36732;47.980;11.652;2023-04-30T06:06:57;14.30;63.10
50758;DHT22;36732;47.980;11.652;2023-04-30T06:09:22;14.30;63.10
50758;DHT22;36732;47.980;11.652;2023-04-30T06:11:48;14.30;63.10
50758;DHT22;36732;47.980;11.652;2023-04-30T06:14:16;14.30;63.30
50758;DHT22;36732;47.980;11.652;2023-04-30T06:16:43;14.30;63.30
50758;DHT22;36732;47.980;11.652;2023-04-30T06:19:10;14.30;63.40
50758;DHT22;36732;47.980;11.652;2023-04-30T06:21:36;14.30;63.40
50758;DHT22;36732;47.980;11.652;2023-04-30T06:24:02;14.40;63.60
50758;DHT22;36732;47.980;11.652;2023-04-30T06:26:28;14.40;63.40
50758;DHT22;36732;47.980;11.652;2023-04-30T06:28:53;14.40;63.50
50758;DHT22;36732;47.980;11.652;2023-04-30T06:31:19;14.40;63.40
50758;DHT22;36732;47.980;11.652;2023-04-30T06:33:45;14.40;63.50
50758;DHT22;36732;47.980;11.652;2023-04-30T06:36:11;14.40;63.40
50758;DHT22;36732;47.980;11.652;2023-04-30T06:38:37;14.40;63.50
50758;DHT22;36732;47.980;11.652;2023-04-30T06:41:03;14.50;63.50
50758;DHT22;36732;47.980;11.652;2023-04-30T06:43:28;14.40;63.50
50758;DHT22;36732;47.980;11.652;2023-04-30T06:45:54;14.40;63.40
50758;DHT22;36732;47.980;11.652;2023-04-30T06:48:20;14.40;63.40
50758;DHT22;36732;47.980;11.652;2023-04-30T06:50:46;14.50;63.40
50758;DHT22;36732;47.980;11.652;2023-04-30T06:53:12;14.40;63.20
50758;DHT22;36732;47.980;11.652;2023-04-30T06:55:38;14.40;63.10
50758;DHT22;36732;47.980;11.652;2023-04-30T06:58:05;14.40;63.10
50758;DHT22;36732;47.980;11.652;2023-04-30T07:00:31;14.50;63.10
50758;DHT22;36732;47.980;11.652;2023-04-30T07:02:57;14.50;63.10
50758;DHT22;36732;47.980;11.652;2023-04-30T07:05:27;14.50;63.10
50758;DHT22;36732;47.980;11.652;2023-04-30T07:07:53;14.50;63.10
50758;DHT22;36732;47.980;11.652;2023-04-30T07:10:18;14.50;62.90
50758;DHT22;36732;47.980;11.652;2023-04-30T07:12:44;14.50;63.00
50758;DHT22;36732;47.980;11.652;2023-04-30T07:15:10;14.50;63.00
50758;DHT22;36732;47.980;11.652;2023-04-30T07:17:36;14.50;63.10
50758;DHT22;36732;47.980;11.652;2023-04-30T07:20:05;14.60;63.30
50758;DHT22;36732;47.980;11.652;2023-04-30T07:22:32;14.60;63.10
50758;DHT22;36732;47.980;11.652;2023-04-30T07:24:58;14.60;63.20
50758;DHT22;36732;47.980;11.652;2023-04-30T07:27:25;14.60;63.10
50758;DHT22;36732;47.980;11.652;2023-04-30T07:29:51;14.60;63.20
50758;DHT22;36732;47.980;11.652;2023-04-30T07:32:16;14.60;63.30
50758;DHT22;36732;47.980;11.652;2023-04-30T07:34:42;14.60;63.00
50758;DHT22;36732;47.980;11.652;2023-04-30T07:37:08;14.70;63.20
50758;DHT22;36732;47.980;11.652;2023-04-30T07:39:34;14.70;63.40
50758;DHT22;36732;47.980;11.652;2023-04-30T07:42:02;14.70;63.40
50758;DHT22;36732;47.980;11.652;2023-04-30T07:44:28;14.70;63.50
50758;DHT22;36732;47.980;11.652;2023-04-30T07:46:54;14.70;63.30
50758;DHT22;36732;47.980;11.652;2023-04-30T07:49:20;14.70;63.20
50758;DHT22;36732;47.980;11.652;2023-04-30T07:51:46;14.80;63.20
50758;DHT22;36732;47.980;11.652;2023-04-30T07:54:12;14.80;63.20
50758;DHT22;36732;47.980;11.652;2023-04-30T07:56:38;14.80;63.20
50758;DHT22;36732;47.980;11.652;2023-04-30T07:59:04;14.80;63.10
50758;DHT22;36732;47.980;11.652;2023-04-30T08:01:30;14.80;63.10
50758;DHT22;36732;47.980;11.652;2023-04-30T08:03:56;14.80;62.90
50758;DHT22;36732;47.980;11.652;2023-04-30T08:06:22;14.80;63.00
50758;DHT22;36732;47.980;11.652;2023-04-30T08:08:48;14.80;63.10
50758;DHT22;36732;47.980;11.652;2023-04-30T08:11:14;14.90;63.00
50758;DHT22;36732;47.980;11.652;2023-04-30T08:13:40;14.80;62.90
50758;DHT22;36732;47.980;11.652;2023-04-30T08:16:07;14.90;63.00
50758;DHT22;36732;47.980;11.652;2023-04-30T08:18:33;14.90;63.00
50758;DHT22;36732;47.980;11.652;2023-04-30T08:20:59;14.90;63.10
50758;DHT22;36732;47.980;11.652;2023-04-30T08:23:26;14.90;63.10
50758;DHT22;36732;47.980;11.652;2023-04-30T08:25:52;14.90;63.20
50758;DHT22;36732;47.980;11.652;2023-04-30T08:28:17;15.00;63.30
50758;DHT22;36732;47.980;11.652;2023-04-30T08:30:43;14.90;63.10
50758;DHT22;36732;47.980;11.652;2023-04-30T08:33:10;15.00;63.10
50758;DHT22;36732;47.980;11.652;2023-04-30T08:35:35;15.00;63.20
50758;DHT22;36732;47.980;11.652;2023-04-30T08:38:01;15.00;63.20
50758;DHT22;36732;47.980;11.652;2023-04-30T08:40:27;15.00;63.10
50758;DHT22;36732;47.980;11.652;2023-04-30T08:43:07;15.00;63.20
50758;DHT22;36732;47.980;11.652;2023-04-30T08:45:34;15.00;62.90
50758;DHT22;36732;47.980;11.652;2023-04-30T08:48:02;15.10;63.00
50758;DHT22;36732;47.980;11.652;2023-04-30T08:50:30;15.10;63.00
50758;DHT22;36732;47.980;11.652;2023-04-30T08:52:59;15.00;63.10
50758;DHT22;36732;47.980;11.652;2023-04-30T08:55:26;15.00;62.80
50758;DHT22;36732;47.980;11.652;2023-04-30T08:57:52;15.10;63.00
50758;DHT22;36732;47.980;11.652;2023-04-30T09:00:18;15.10;63.10
50758;DHT22;36732;47.980;11.652;2023-04-30T09:02:46;15.10;63.10
50758;DHT22;36732;47.980;11.652;2023-04-30T09:05:13;15.10;63.10
50758;DHT22;36732;47.980;11.652;2023-04-30T09:07:40;15.10;63.10
50758;DHT22;36732;47.980;11.652;2023-04-30T09:10:14;15.10;63.00
50758;DHT22;36732;47.980;11.652;2023-04-30T09:13:04;15.10;62.80
50758;DHT22;36732;47.980;11.652;2023-04-30T09:15:33;15.10;62.60
50758;DHT22;36732;47.980;11.652;2023-04-30T09:18:11;15.20;62.90
50758;DHT22;36732;47.980;11.652;2023-04-30T09:20:37;15.20;62.30
50758;DHT22;36732;47.980;11.652;2023-04-30T09:23:18;15.20;62.30
50758;DHT22;36732;47.980;11.652;2023-04-30T09:25:44;15.20;62.40
50758;DHT22;36732;47.980;11.652;2023-04-30T09:28:11;15.20;62.30
50758;DHT22;36732;47.980;11.652;2023-04-30T09:30:38;15.20;62.50
50758;DHT22;36732;47.980;11.652;2023-04-30T09:33:04;15.20;62.50
50758;DHT22;36732;47.980;11.652;2023-04-30T09:35:32;15.20;62.60
50758;DHT22;36732;47.980;11.652;2023-04-30T09:38:03;15.30;62.60
50758;DHT22;36732;47.980;11.652;2023-04-30T09:40:37;15.30;62.60
50758;DHT22;36732;47.980;11.652;2023-04-30T09:43:05;15.30;62.70
50758;DHT22;36732;47.980;11.652;2023-04-30T09:45:47;15.30;62.80
50758;DHT22;36732;47.980;11.652;2023-04-30T09:48:18;15.30;62.60
50758;DHT22;36732;47.980;11.652;2023-04-30T09:50:49;15.30;62.80
50758;DHT22;36732;47.980;11.652;2023-04-30T09:53:16;15.30;62.70
50758;DHT22;36732;47.980;11.652;2023-04-30T09:55:49;15.30;62.80
50758;DHT22;36732;47.980;11.652;2023-04-30T09:58:17;15.30;62.60
50758;DHT22;36732;47.980;11.652;2023-04-30T10:00:46;15.30;62.70
50758;DHT22;36732;47.980;11.652;2023-04-30T10:03:14;15.30;62.50
50758;DHT22;36732;47.980;11.652;2023-04-30T10:05:42;15.40;62.60
50758;DHT22;36732;47.980;11.652;2023-04-30T10:10:44;15.40;62.50
50758;DHT22;36732;47.980;11.652;2023-04-30T10:13:17;15.40;62.40
50758;DHT22;36732;47.980;11.652;2023-04-30T10:15:51;15.40;62.20
50758;DHT22;36732;47.980;11.652;2023-04-30T10:18:22;15.40;62.40
50758;DHT22;36732;47.980;11.652;2023-04-30T10:20:54;15.40;62.40
50758;DHT22;36732;47.980;11.652;2023-04-30T10:23:20;15.40;62.40
50758;DHT22;36732;47.980;11.652;2023-04-30T10:25:46;15.40;62.40
50758;DHT22;36732;47.980;11.652;2023-04-30T10:28:13;15.40;62.50
50758;DHT22;36732;47.980;11.652;2023-04-30T10:30:40;15.40;62.60
50758;DHT22;36732;47.980;11.652;2023-04-30T10:33:30;15.40;62.70
50758;DHT22;36732;47.980;11.652;2023-04-30T10:36:32;15.40;62.70
50758;DHT22;36732;47.980;11.652;2023-04-30T10:39:20;15.50;62.30
50758;DHT22;36732;47.980;11.652;2023-04-30T10:41:47;15.50;61.90
50758;DHT22;36732;47.980;11.652;2023-04-30T10:44:13;15.50;62.00
50758;DHT22;36732;47.980;11.652;2023-04-30T10:46:39;15.50;62.30
50758;DHT22;36732;47.980;11.652;2023-04-30T10:49:06;15.60;62.20
50758;DHT22;36732;47.980;11.652;2023-04-30T10:51:46;15.60;62.00
50758;DHT22;36732;47.980;11.652;2023-04-30T10:54:15;15.60;61.50
50758;DHT22;36732;47.980;11.652;2023-04-30T10:56:44;15.60;61.60
50758;DHT22;36732;47.980;11.652;2023-04-30T10:59:10;15.60;61.80
50758;DHT22;36732;47.980;11.652;2023-04-30T11:01:57;15.60;61.70
50758;DHT22;36732;47.980;11.652;2023-04-30T11:04:25;15.60;61.50
50758;DHT22;36732;47.980;11.652;2023-04-30T11:07:07;15.70;61.70
50758;DHT22;36732;47.980;11.652;2023-04-30T11:09:41;15.70;61.40
50758;DHT22;36732;47.980;11.652;2023-04-30T11:12:18;15.70;61.30
50758;DHT22;36732;47.980;11.652;2023-04-30T11:14:52;15.70;60.90
50758;DHT22;36732;47.980;11.652;2023-04-30T11:17:26;15.70;61.50
50758;DHT22;36732;47.980;11.652;2023-04-30T11:19:53;15.70;61.40
50758;DHT22;36732;47.980;11.652;2023-04-30T11:22:25;15.70;61.60
50758;DHT22;36732;47.980;11.652;2023-04-30T11:25:08;15.80;61.40
50758;DHT22;36732;47.980;11.652;2023-04-30T11:27:39;15.80;61.00
50758;DHT22;36732;47.980;11.652;2023-04-30T11:30:17;15.80;61.10
50758;DHT22;36732;47.980;11.652;2023-04-30T11:32:45;15.80;60.80
50758;DHT22;36732;47.980;11.652;2023-04-30T11:35:12;15.80;60.90
50758;DHT22;36732;47.980;11.652;2023-04-30T11:37:42;15.90;60.80
50758;DHT22;36732;47.980;11.652;2023-04-30T11:40:13;15.90;60.70
50758;DHT22;36732;47.980;11.652;2023-04-30T11:42:40;15.80;60.60
50758;DHT22;36732;47.980;11.652;2023-04-30T11:45:13;15.90;60.50
50758;DHT22;36732;47.980;11.652;2023-04-30T11:50:15;15.90;60.70
50758;DHT22;36732;47.980;11.652;2023-04-30T11:52:47;15.90;60.70
50758;DHT22;36732;47.980;11.652;2023-04-30T11:55:16;15.90;60.60
50758;DHT22;36732;47.980;11.652;2023-04-30T11:57:45;15.90;60.70
50758;DHT22;36732;47.980;11.652;2023-04-30T12:00:14;15.90;60.60
50758;DHT22;36732;47.980;11.652;2023-04-30T12:02:46;15.90;60.20
50758;DHT22;36732;47.980;11.652;2023-04-30T12:05:17;15.90;59.80
50758;DHT22;36732;47.980;11.652;2023-04-30T12:07:54;15.90;60.00
50758;DHT22;36732;47.980;11.652;2023-04-30T12:10:22;16.00;60.00
50758;DHT22;36732;47.980;11.652;2023-04-30T12:12:49;16.00;60.00
50758;DHT22;36732;47.980;11.652;2023-04-30T12:15:23;16.00;59.80
50758;DHT22;36732;47.980;11.652;2023-04-30T12:18:10;16.00;59.60
50758;DHT22;36732;47.980;11.652;2023-04-30T12:20:40;16.00;59.70
50758;DHT22;36732;47.980;11.652;2023-04-30T12:23:07;16.00;59.50
50758;DHT22;36732;47.980;11.652;2023-04-30T12:25:40;16.00;59.40
50758;DHT22;36732;47.980;11.652;2023-04-30T12:28:07;16.00;59.00
50758;DHT22;36732;47.980;11.652;2023-04-30T12:30:33;16.00;59.30
50758;DHT22;36732;47.980;11.652;2023-04-30T12:32:59;16.10;59.20
50758;DHT22;36732;47.980;11.652;2023-04-30T12:35:28;16.10;59.30
50758;DHT22;36732;47.980;11.652;2023-04-30T12:38:02;16.00;59.30
50758;DHT22;36732;47.980;11.652;2023-04-30T12:40:30;16.10;58.70
50758;DHT22;36732;47.980;11.652;2023-04-30T12:43:01;16.10;58.80
50758;DHT22;36732;47.980;11.652;2023-04-30T12:45:48;16.10;58.80
50758;DHT22;36732;47.980;11.652;2023-04-30T12:48:20;16.10;58.60
50758;DHT22;36732;47.980;11.652;2023-04-30T12:51:07;16.10;59.00
50758;DHT22;36732;47.980;11.652;2023-04-30T12:53:44;16.20;58.60
50758;DHT22;36732;47.980;11.652;2023-04-30T12:56:16;16.20;58.50
50758;DHT22;36732;47.980;11.652;2023-04-30T12:58:43;16.20;58.90
50758;DHT22;36732;47.980;11.652;2023-04-30T13:01:21;16.20;58.80
50758;DHT22;36732;47.980;11.652;2023-04-30T13:03:49;16.20;58.80
50758;DHT22;36732;47.980;11.652;2023-04-30T13:06:15;16.20;59.00
50758;DHT22;36732;47.980;11.652;2023-04-30T13:08:41;16.20;58.50
50758;DHT22;36732;47.980;11.652;2023-04-30T13:11:07;16.20;58.70
50758;DHT22;36732;47.980;11.652;2023-04-30T13:13:33;16.20;58.60
50758;DHT22;36732;47.980;11.652;2023-04-30T13:15:59;16.20;58.40
50758;DHT22;36732;47.980;11.652;2023-04-30T13:18:24;16.20;58.30
50758;DHT22;36732;47.980;11.652;2023-04-30T13:20:50;16.30;58.20
50758;DHT22;36732;47.980;11.652;2023-04-30T13:23:16;16.20;58.10
50758;DHT22;36732;47.980;11.652;2023-04-30T13:25:42;16.30;58.10
50758;DHT22;36732;47.980;11.652;2023-04-30T13:28:08;16.30;58.20
50758;DHT22;36732;47.980;11.652;2023-04-30T13:30:34;16.30;58.20
50758;DHT22;36732;47.980;11.652;2023-04-30T13:33:00;16.30;58.20
50758;DHT22;36732;47.980;11.652;2023-04-30T13:35:26;16.30;58.20
50758;DHT22;36732;47.980;11.652;2023-04-30T13:37:53;16.30;58.00
50758;DHT22;36732;47.980;11.652;2023-04-30T13:40:19;16.30;57.90
50758;DHT22;36732;47.980;11.652;2023-04-30T13:42:46;16.30;58.10
50758;DHT22;36732;47.980;11.652;2023-04-30T13:45:12;16.30;58.40
50758;DHT22;36732;47.980;11.652;2023-04-30T13:47:38;16.30;58.10
50758;DHT22;36732;47.980;11.652;2023-04-30T13:50:05;16.30;57.80
50758;DHT22;36732;47.980;11.652;2023-04-30T13:52:32;16.30;57.40
50758;DHT22;36732;47.980;11.652;2023-04-30T13:54:58;16.30;57.50
50758;DHT22;36732;47.980;11.652;2023-04-30T13:57:24;16.30;56.80
50758;DHT22;36732;47.980;11.652;2023-04-30T13:59:50;16.30;57.10
50758;DHT22;36732;47.980;11.652;2023-04-30T14:02:16;16.30;57.10
50758;DHT22;36732;47.980;11.652;2023-04-30T14:04:43;16.40;57.40
50758;DHT22;36732;47.980;11.652;2023-04-30T14:07:08;16.40;57.60
50758;DHT22;36732;47.980;11.652;2023-04-30T14:09:34;16.30;57.50
50758;DHT22;36732;47.980;11.652;2023-04-30T14:12:00;16.40;57.40
50758;DHT22;36732;47.980;11.652;2023-04-30T14:14:27;16.40;56.90
50758;DHT22;36732;47.980;11.652;2023-04-30T14:16:53;16.40;57.00
50758;DHT22;36732;47.980;11.652;2023-04-30T14:19:23;16.40;56.80
50758;DHT22;36732;47.980;11.652;2023-04-30T14:21:48;16.40;56.80
50758;DHT22;36732;47.980;11.652;2023-04-30T14:24:14;16.40;57.10
50758;DHT22;36732;47.980;11.652;2023-04-30T14:26:43;16.40;57.50
50758;DHT22;36732;47.980;11.652;2023-04-30T14:29:12;16.40;56.20
50758;DHT22;36732;47.980;11.652;2023-04-30T14:31:37;16.40;56.60
50758;DHT22;36732;47.980;11.652;2023-04-30T14:34:03;16.40;56.40
50758;DHT22;36732;47.980;11.652;2023-04-30T14:36:29;16.40;56.20
50758;DHT22;36732;47.980;11.652;2023-04-30T14:38:55;16.40;56.30
50758;DHT22;36732;47.980;11.652;2023-04-30T14:41:20;16.40;56.50
50758;DHT22;36732;47.980;11.652;2023-04-30T14:43:46;16.50;56.20
50758;DHT22;36732;47.980;11.652;2023-04-30T14:46:12;16.50;56.20
50758;DHT22;36732;47.980;11.652;2023-04-30T14:48:38;16.50;56.40
50758;DHT22;36732;47.980;11.652;2023-04-30T14:51:04;16.50;56.60
50758;DHT22;36732;47.980;11.652;2023-04-30T14:53:29;16.50;56.60
50758;DHT22;36732;47.980;11.652;2023-04-30T14:55:55;16.50;56.40
50758;DHT22;36732;47.980;11.652;2023-04-30T14:58:21;16.50;56.70
50758;DHT22;36732;47.980;11.652;2023-04-30T15:00:47;16.50;56.30
50758;DHT22;36732;47.980;11.652;2023-04-30T15:03:13;16.50;56.20
50758;DHT22;36732;47.980;11.652;2023-04-30T15:05:42;16.50;56.10
50758;DHT22;36732;47.980;11.652;2023-04-30T15:08:07;16.50;55.80
50758;DHT22;36732;47.980;11.652;2023-04-30T15:10:33;16.50;55.80
50758;DHT22;36732;47.980;11.652;2023-04-30T15:13:01;16.60;55.60
50758;DHT22;36732;47.980;11.652;2023-04-30T15:15:27;16.60;55.30
50758;DHT22;36732;47.980;11.652;2023-04-30T15:17:55;16.60;55.50
50758;DHT22;36732;47.980;11.652;2023-04-30T15:20:21;16.60;55.30
50758;DHT22;36732;47.980;11.652;2023-04-30T15:22:48;16.60;55.60
50758;DHT22;36732;47.980;11.652;2023-04-30T15:25:19;16.60;55.50
50758;DHT22;36732;47.980;11.652;2023-04-30T15:27:46;16.60;55.50
50758;DHT22;36732;47.980;11.652;2023-04-30T15:30:12;16.60;55.20
50758;DHT22;36732;47.980;11.652;2023-04-30T15:32:38;16.60;55.10
50758;DHT22;36732;47.980;11.652;2023-04-30T15:35:04;16.60;55.60
50758;DHT22;36732;47.980;11.652;2023-04-30T15:37:30;16.60;55.10
50758;DHT22;36732;47.980;11.652;2023-04-30T15:39:56;16.60;55.20